Time;durP1;ratioP1;P1;durP2;ratioP2;P2;SDS_P1;SDS_P2;PMS_P1;PMS_P2;Temp;Humidity;BMP_temperature;BMP_pressure;BME280_temperature;BME280_humidity;BME280_pressure;Samples;Min_cycle;Max_cycle;Signal;HPM_P1;HPM_P2
2022/11/02 00:02:02;;;;;;;13.23;3.63;;;7.00;99.90;;;7.89;100.00;98544.03;5033712;28;20504;-83
2022/11/02 00:04:31;;;;;;;8.43;2.60;;;6.90;99.90;;;7.85;100.00;98547.94;5037271;28;20533;-83
2022/11/02 00:07:00;;;;;;;6.57;2.40;;;6.80;99.90;;;7.78;100.00;98549.53;5033341;28;20502;-83
2022/11/02 00:09:29;;;;;;;10.57;2.90;;;6.80;99.90;;;7.83;100.00;98552.47;5032972;28;20964;-83
2022/11/02 00:11:57;;;;;;;6.50;3.17;;;6.90;99.90;;;7.83;100.00;98553.31;5035323;28;21075;-83
2022/11/02 00:14:26;;;;;;;5.30;2.60;;;6.80;99.90;;;7.77;100.00;98548.75;5034530;28;21146;-83
2022/11/02 00:16:55;;;;;;;12.00;2.53;;;6.80;99.90;;;7.66;100.00;98542.97;5037552;28;20585;-83
2022/11/02 00:19:25;;;;;;;7.40;2.47;;;6.70;99.90;;;7.69;100.00;98553.91;5037760;28;20536;-84
2022/11/02 00:21:55;;;;;;;9.93;2.87;;;6.70;99.90;;;7.69;100.00;98553.06;5038336;28;20497;-83
2022/11/02 00:24:24;;;;;;;6.80;2.40;;;6.70;99.90;;;7.72;100.00;98553.59;5034608;28;20469;-83
2022/11/02 00:26:54;;;;;;;5.57;2.43;;;6.70;99.90;;;7.70;100.00;98552.13;5034862;28;20462;-83
2022/11/02 00:29:23;;;;;;;12.03;3.03;;;6.80;99.90;;;7.71;100.00;98551.13;5036448;28;20552;-83
2022/11/02 00:31:52;;;;;;;4.80;1.93;;;6.80;99.90;;;7.68;100.00;98557.47;5033468;28;20553;-83
2022/11/02 00:34:21;;;;;;;8.13;3.33;;;6.80;99.90;;;7.59;100.00;98555.81;5034690;28;20571;-84
2022/11/02 00:36:51;;;;;;;8.50;3.00;;;6.60;99.90;;;7.62;100.00;98552.88;5033412;28;20500;-84
2022/11/02 00:39:23;;;;;;;6.67;2.80;;;6.60;99.90;;;7.56;100.00;98553.53;5034126;28;20938;-83
2022/11/02 00:41:52;;;;;;;5.30;2.67;;;6.60;99.90;;;7.60;100.00;98558.22;5034569;28;20559;-83
2022/11/02 00:44:21;;;;;;;7.30;2.30;;;6.60;99.90;;;7.62;100.00;98546.88;5034178;28;20488;-84
2022/11/02 00:46:49;;;;;;;5.43;2.47;;;6.60;99.90;;;7.56;100.00;98551.75;5033868;28;20576;-83
2022/11/02 00:49:18;;;;;;;3.20;1.93;;;6.50;99.90;;;7.54;100.00;98553.66;5034602;28;20477;-83
2022/11/02 00:51:46;;;;;;;10.67;2.37;;;6.50;99.90;;;7.52;100.00;98558.22;5034232;28;20556;-83
2022/11/02 00:54:16;;;;;;;5.13;2.10;;;6.50;99.90;;;7.57;100.00;98549.91;5032130;28;21046;-84
2022/11/02 00:56:45;;;;;;;4.73;2.30;;;6.60;99.90;;;7.54;100.00;98555.44;5028799;28;20609;-84
2022/11/02 00:59:14;;;;;;;6.30;2.27;;;6.50;99.90;;;7.51;100.00;98561.78;5036056;28;20508;-82
2022/11/02 01:01:46;;;;;;;3.90;1.97;;;6.50;99.90;;;7.48;100.00;98554.28;5036972;28;21023;-83
2022/11/02 01:04:16;;;;;;;4.93;2.37;;;6.50;99.90;;;7.50;100.00;98549.72;5037802;28;20464;-83
2022/11/02 01:06:46;;;;;;;12.03;2.40;;;6.60;99.90;;;7.50;100.00;98552.34;5034174;28;20540;-83
2022/11/02 01:09:17;;;;;;;7.60;1.90;;;6.50;99.90;;;7.52;100.00;98558.22;5035603;28;20577;-83
2022/11/02 01:11:46;;;;;;;19.90;3.30;;;6.60;99.90;;;7.54;100.00;98550.25;5034185;28;20568;-83
2022/11/02 01:14:15;;;;;;;10.70;3.00;;;6.70;99.90;;;7.53;100.00;98539.00;5033262;28;20485;-83
2022/11/02 01:16:44;;;;;;;8.90;1.87;;;6.70;99.90;;;7.59;100.00;98543.63;5036399;28;20525;-83
2022/11/02 01:19:13;;;;;;;8.63;2.17;;;6.70;99.90;;;7.60;100.00;98549.63;5036792;28;20824;-83
2022/11/02 01:21:42;;;;;;;11.53;2.20;;;6.70;99.90;;;7.65;100.00;98536.13;5035728;28;20548;-83
2022/11/02 01:24:11;;;;;;;5.53;2.60;;;6.70;99.90;;;7.69;100.00;98543.50;5034411;28;20452;-82
2022/11/02 01:26:41;;;;;;;9.93;2.30;;;6.80;99.90;;;7.71;100.00;98535.50;5035755;28;20473;-83
2022/11/02 01:29:09;;;;;;;3.13;2.03;;;6.90;99.90;;;7.75;100.00;98531.63;5036947;28;20464;-83
2022/11/02 01:31:38;;;;;;;8.23;2.03;;;7.00;99.90;;;7.78;100.00;98532.13;5035292;28;20473;-84
2022/11/02 01:34:06;;;;;;;7.47;2.50;;;7.00;99.90;;;7.82;100.00;98527.41;5036570;28;20553;-83
2022/11/02 01:36:35;;;;;;;6.73;1.80;;;7.10;99.90;;;7.84;100.00;98522.88;5036385;28;20850;-83
2022/11/02 01:39:04;;;;;;;13.00;2.93;;;7.10;99.90;;;7.89;100.00;98523.22;5033247;28;20550;-83
2022/11/02 01:41:33;;;;;;;5.27;2.00;;;7.10;99.90;;;7.91;100.00;98516.06;5035750;28;20461;-83
2022/11/02 01:44:06;;;;;;;9.83;2.33;;;7.10;99.90;;;7.95;100.00;98519.97;5031551;28;20831;-83
2022/11/02 01:46:42;;;;;;;7.27;2.00;;;7.20;99.90;;;7.94;100.00;98510.53;5034075;28;20531;-83
2022/11/02 01:49:16;;;;;;;8.10;2.20;;;7.20;99.90;;;7.97;100.00;98507.63;5033531;28;20512;-83
2022/11/02 01:51:51;;;;;;;5.70;2.27;;;7.20;99.90;;;8.01;100.00;98506.34;5036185;28;20504;-83
2022/11/02 01:54:29;;;;;;;9.23;2.37;;;7.20;99.90;;;8.02;100.00;98497.53;5033846;28;20463;-83
2022/11/02 01:57:07;;;;;;;4.13;1.53;;;7.20;99.90;;;8.05;100.00;98500.63;5032854;28;20575;-83
2022/11/02 01:59:44;;;;;;;9.53;2.50;;;7.30;99.90;;;8.05;100.00;98492.03;5031197;28;20473;-83
2022/11/02 02:02:25;;;;;;;12.00;2.83;;;7.30;99.90;;;8.08;100.00;98505.53;5031398;28;20468;-83
2022/11/02 02:05:05;;;;;;;6.43;1.83;;;7.30;99.90;;;8.03;100.00;98505.19;5034594;28;20449;-82
2022/11/02 02:07:38;;;;;;;5.10;2.30;;;7.30;99.90;;;8.03;100.00;98493.97;5036650;28;20449;-83
2022/11/02 02:10:09;;;;;;;5.07;2.13;;;7.20;99.90;;;8.07;100.00;98503.09;5033204;28;20511;-83
2022/11/02 02:12:41;;;;;;;5.50;2.30;;;7.20;99.90;;;8.09;100.00;98509.75;5033473;28;20493;-83
2022/11/02 02:15:14;;;;;;;7.90;2.10;;;7.30;99.90;;;8.10;100.00;98502.75;5032679;28;20559;-83
2022/11/02 02:17:49;;;;;;;4.80;2.00;;;7.30;99.90;;;8.15;100.00;98507.50;5032022;28;20628;-83
2022/11/02 02:20:39;;;;;;;9.70;3.00;;;7.40;99.90;;;8.18;100.00;98505.38;5036774;28;20532;-83
2022/11/02 02:23:59;;;;;;;18.77;2.73;;;7.40;99.90;;;8.20;100.00;98506.03;5037224;28;21008;-84
2022/11/02 02:27:05;;;;;;;11.97;2.50;;;7.40;99.90;;;8.27;100.00;98507.03;5036273;28;20469;-83
2022/11/02 02:29:51;;;;;;;4.80;1.90;;;7.50;99.90;;;8.30;100.00;98501.50;5038117;28;20540;-83
2022/11/02 02:32:32;;;;;;;6.00;1.90;;;7.50;99.90;;;8.32;100.00;98504.78;5036559;28;20474;-83
2022/11/02 02:35:13;;;;;;;8.67;2.37;;;7.60;99.90;;;8.35;100.00;98507.06;5039179;28;20540;-83
2022/11/02 02:37:54;;;;;;;14.60;2.33;;;7.60;99.90;;;8.39;100.00;98497.13;5037385;28;20554;-83
2022/11/02 02:40:33;;;;;;;9.67;2.77;;;7.60;99.90;;;8.45;100.00;98515.53;5036477;28;20497;-83
2022/11/02 02:43:08;;;;;;;14.97;2.50;;;7.70;99.90;;;8.49;100.00;98514.25;5033660;28;20520;-83
2022/11/02 02:45:44;;;;;;;9.03;2.10;;;7.70;99.90;;;8.51;100.00;98509.69;5037417;28;20452;-85
2022/11/02 02:48:18;;;;;;;6.37;2.03;;;7.80;99.90;;;8.55;100.00;98511.00;5032588;28;20497;-83
2022/11/02 02:50:50;;;;;;;6.03;2.50;;;7.80;99.90;;;8.61;100.00;98508.72;5037171;28;20473;-83
2022/11/02 02:53:25;;;;;;;8.63;4.20;;;7.90;99.90;;;8.64;100.00;98511.81;5033850;28;20549;-83
2022/11/02 02:55:55;;;;;;;9.43;2.60;;;7.90;99.90;;;8.68;100.00;98510.50;5035746;28;20448;-83
2022/11/02 02:58:29;;;;;;;20.33;2.60;;;7.90;99.90;;;8.72;100.00;98508.38;5035650;28;20616;-83
2022/11/02 03:01:01;;;;;;;5.50;2.50;;;8.00;99.90;;;8.74;100.00;98509.84;5036080;28;20469;-83
2022/11/02 03:03:33;;;;;;;5.40;2.17;;;8.00;99.90;;;8.75;100.00;98508.84;5037101;28;20866;-83
2022/11/02 03:06:19;;;;;;;5.60;2.17;;;8.00;99.90;;;8.79;100.00;98506.72;5036553;28;20565;-83
2022/11/02 03:08:57;;;;;;;8.37;2.20;;;8.10;99.90;;;8.81;100.00;98504.78;5034789;28;20519;-83
2022/11/02 03:11:28;;;;;;;4.97;2.17;;;8.10;99.90;;;8.83;100.00;98500.22;5037927;28;20462;-83
2022/11/02 03:14:17;;;;;;;8.10;2.83;;;8.10;99.90;;;8.84;100.00;98502.69;5039073;28;20936;-83
2022/11/02 03:17:06;;;;;;;3.83;2.07;;;8.10;99.90;;;8.86;100.00;98507.72;5038507;28;20454;-83
2022/11/02 03:19:43;;;;;;;4.53;2.00;;;8.20;99.90;;;8.88;100.00;98498.75;5038376;28;20485;-83
2022/11/02 03:22:26;;;;;;;9.33;2.57;;;8.20;99.90;;;8.90;100.00;98501.19;5038808;28;20485;-83
2022/11/02 03:25:08;;;;;;;7.70;2.17;;;8.20;99.90;;;8.91;100.00;98500.22;5036324;28;20961;-83
2022/11/02 03:27:49;;;;;;;2.40;1.73;;;8.20;99.90;;;8.92;100.00;98512.28;5039666;28;21051;-84
2022/11/02 03:30:22;;;;;;;8.00;2.77;;;8.30;99.90;;;8.93;100.00;98516.50;5037212;28;20462;-83
2022/11/02 03:33:06;;;;;;;11.07;2.30;;;8.20;99.90;;;8.93;100.00;98517.31;5039203;28;20466;-83
2022/11/02 03:35:44;;;;;;;3.63;2.00;;;8.20;99.90;;;8.92;100.00;98526.13;5039972;28;20457;-84
2022/11/02 03:38:19;;;;;;;6.00;1.80;;;8.20;99.90;;;8.94;100.00;98532.00;5036771;28;20538;-83
2022/11/02 03:40:52;;;;;;;9.40;2.80;;;8.20;99.90;;;8.94;100.00;98531.19;5035158;28;20492;-83
2022/11/02 03:43:24;;;;;;;4.27;2.23;;;8.30;99.90;;;8.96;100.00;98521.38;5036621;28;20470;-82
2022/11/02 03:45:56;;;;;;;6.60;1.90;;;8.40;99.90;;;8.96;100.00;98529.22;5036601;28;20493;-83
2022/11/02 03:48:35;;;;;;;15.63;2.47;;;8.40;99.90;;;8.95;100.00;98532.81;5032835;28;20480;-83
2022/11/02 03:51:14;;;;;;;5.43;2.10;;;8.30;99.90;;;8.98;100.00;98535.91;5035522;28;20997;-84
2022/11/02 03:53:49;;;;;;;11.87;4.90;;;8.40;99.90;;;9.01;100.00;98539.97;5032110;28;20523;-83
2022/11/02 03:56:25;;;;;;;21.60;8.03;;;8.40;99.90;;;9.04;100.00;98535.25;5035396;28;20497;-84
2022/11/02 03:58:54;;;;;;;10.23;4.10;;;8.40;99.90;;;9.06;100.00;98535.06;5036052;28;20497;-83
2022/11/02 04:01:23;;;;;;;11.60;3.87;;;8.40;99.90;;;9.08;100.00;98540.94;5031820;28;20474;-83
2022/11/02 04:03:53;;;;;;;9.33;4.73;;;8.50;99.90;;;9.11;100.00;98553.66;5035615;28;20965;-83
2022/11/02 04:06:25;;;;;;;11.87;5.97;;;8.50;99.90;;;9.12;100.00;98555.31;5033405;28;20469;-81
2022/11/02 04:08:53;;;;;;;15.37;6.73;;;8.40;99.90;;;9.15;100.00;98547.13;5036962;28;20537;-83
2022/11/02 04:19:26;;;;;;;50.30;18.20;;;8.50;99.90;;;9.22;100.00;98558.53;5032899;28;21095;-83
2022/11/02 04:19:44;;;;;;;15.33;5.17;;;8.60;99.90;;;9.25;100.00;98550.38;5035015;28;20469;-84
2022/11/02 04:25:18;;;;;;;12.93;3.20;;;8.60;99.90;;;9.30;100.00;98549.88;5037730;28;20458;-83
2022/11/02 04:27:49;;;;;;;6.53;2.50;;;8.70;99.90;;;9.31;100.00;98565.38;5035820;28;20528;-83
2022/11/02 04:30:21;;;;;;;7.53;2.43;;;8.70;99.90;;;9.30;100.00;98558.50;5038505;28;20525;-83
2022/11/02 04:35:40;;;;;;;16.27;2.33;;;8.70;99.90;;;9.33;100.00;98549.56;5036372;28;20507;-83
2022/11/02 04:41:40;;;;;;;13.33;3.30;;;8.70;99.90;;;9.33;100.00;98573.88;5034829;28;20536;-83
2022/11/02 04:43:44;;;;;;;15.63;2.63;;;8.70;99.90;;;9.33;100.00;98563.44;5033841;28;20462;-83
2022/11/02 04:46:12;;;;;;;11.43;3.03;;;8.70;99.90;;;9.32;100.00;98568.78;5033120;28;20922;-83
2022/11/02 04:48:41;;;;;;;14.10;2.70;;;8.60;99.90;;;9.31;100.00;98569.75;5031623;28;20556;-84
2022/11/02 04:51:11;;;;;;;8.77;2.20;;;8.60;99.90;;;9.33;100.00;98588.69;5032933;28;20540;-83
2022/11/02 04:53:40;;;;;;;9.63;2.20;;;8.60;99.90;;;9.31;100.00;98593.25;5034834;28;21015;-84
2022/11/02 04:56:09;;;;;;;8.17;2.40;;;8.60;99.90;;;9.33;100.00;98594.75;5032808;28;20476;-84
2022/11/02 04:58:38;;;;;;;20.67;6.63;;;8.70;99.90;;;9.33;100.00;98605.19;5032499;28;20592;-82
2022/11/02 05:01:08;;;;;;;22.97;2.93;;;8.70;99.90;;;9.28;100.00;98607.44;5031791;28;20476;-83
2022/11/02 05:03:36;;;;;;;11.73;2.93;;;8.60;99.90;;;9.31;100.00;98611.53;5035411;28;20541;-83
2022/11/02 05:06:06;;;;;;;8.93;3.93;;;8.70;99.90;;;9.31;100.00;98604.50;5034402;28;21053;-82
2022/11/02 05:08:37;;;;;;;17.33;4.70;;;8.60;99.90;;;9.32;100.00;98607.94;5034610;28;20469;-82
2022/11/02 05:11:06;;;;;;;8.93;3.50;;;8.60;99.90;;;9.35;100.00;98605.81;5035612;28;20470;-83
2022/11/02 05:13:35;;;;;;;5.50;2.70;;;8.70;99.90;;;9.37;100.00;98616.88;5034840;28;20457;-82
2022/11/02 05:16:05;;;;;;;8.80;2.60;;;8.80;99.90;;;9.39;100.00;98614.94;5035481;28;20461;-83
2022/11/02 05:18:35;;;;;;;7.07;2.20;;;8.70;99.90;;;9.40;100.00;98621.00;5035600;28;20828;-82
2022/11/02 05:21:04;;;;;;;11.10;3.30;;;8.70;99.90;;;9.41;100.00;98620.00;5028636;28;20572;-82
2022/11/02 05:23:34;;;;;;;4.70;1.63;;;8.80;99.90;;;9.42;100.00;98625.06;5035162;28;20457;-82
2022/11/02 05:26:06;;;;;;;12.20;2.57;;;8.80;99.90;;;9.47;100.00;98622.78;5035483;28;20548;-79
2022/11/02 05:28:34;;;;;;;9.60;2.00;;;8.90;99.90;;;9.50;100.00;98624.25;5034712;28;20449;-82
2022/11/02 05:31:04;;;;;;;12.90;2.60;;;8.90;99.90;;;9.56;100.00;98632.22;5035465;28;20532;-82
2022/11/02 05:33:33;;;;;;;3.97;1.83;;;8.90;99.90;;;9.56;100.00;98634.81;5037769;28;20438;-82
2022/11/02 05:36:02;;;;;;;15.10;2.77;;;9.00;99.90;;;9.57;100.00;98633.03;5035500;28;20455;-83
2022/11/02 05:38:31;;;;;;;7.00;2.37;;;9.00;99.90;;;9.60;100.00;98638.75;5037979;28;20530;-82
2022/11/02 05:41:01;;;;;;;8.30;2.13;;;9.00;99.90;;;9.61;100.00;98637.75;5036697;28;20957;-83
2022/11/02 05:43:30;;;;;;;7.73;2.63;;;9.10;99.90;;;9.63;100.00;98642.81;5035800;28;20458;-82
2022/11/02 05:46:00;;;;;;;33.10;3.33;;;9.00;99.90;;;9.67;100.00;98638.06;5035796;28;20453;-82
2022/11/02 05:48:33;;;;;;;5.90;1.50;;;9.10;99.90;;;9.72;100.00;98630.56;5035690;28;20462;-83
2022/11/02 05:51:04;;;;;;;7.73;1.87;;;9.20;99.90;;;9.76;100.00;98647.50;5036127;28;20446;-83
2022/11/02 05:53:37;;;;;;;5.90;1.93;;;9.20;99.90;;;9.77;100.00;98646.53;5036191;28;20936;-83
2022/11/02 05:56:10;;;;;;;14.13;1.80;;;9.20;99.90;;;9.83;100.00;98640.63;5040919;28;20461;-83
2022/11/02 05:58:38;;;;;;;5.20;2.03;;;9.30;99.90;;;9.85;100.00;98641.28;5039644;28;21050;-83
2022/11/02 06:01:09;;;;;;;7.87;1.90;;;9.40;99.90;;;9.87;100.00;98649.75;5040149;28;20453;-83
2022/11/02 06:03:38;;;;;;;11.00;1.93;;;9.40;99.90;;;9.89;100.00;98642.59;5041864;28;20488;-83
2022/11/02 06:06:11;;;;;;;10.70;2.63;;;9.40;99.90;;;9.91;100.00;98651.06;5040156;28;20546;-83
2022/11/02 06:08:40;;;;;;;9.23;1.60;;;9.40;99.90;;;9.93;100.00;98659.53;5041188;28;20442;-82
2022/11/02 06:11:13;;;;;;;13.47;2.30;;;9.50;99.90;;;9.96;100.00;98664.47;5039963;28;20559;-82
2022/11/02 06:13:42;;;;;;;8.60;2.30;;;9.50;99.90;;;9.96;100.00;98661.84;5040431;28;20461;-82
2022/11/02 06:16:14;;;;;;;8.43;2.17;;;9.50;99.90;;;9.95;100.00;98671.47;5039648;28;20624;-82
2022/11/02 06:18:51;;;;;;;10.37;1.87;;;9.50;99.90;;;9.99;100.00;98677.19;5041941;28;20545;-82
2022/11/02 06:21:20;;;;;;;8.27;1.90;;;9.50;99.90;;;10.02;100.00;98677.66;5040496;28;20879;-83
2022/11/02 06:23:49;;;;;;;11.40;2.10;;;9.50;99.90;;;10.04;100.00;98682.69;5042963;28;20493;-83
2022/11/02 06:26:19;;;;;;;8.80;2.73;;;9.50;99.90;;;10.06;100.00;98680.75;5038903;28;20927;-82
2022/11/02 06:28:48;;;;;;;6.47;2.07;;;9.50;99.90;;;10.09;100.00;98690.88;5041421;28;20506;-82
2022/11/02 06:31:17;;;;;;;10.47;2.13;;;9.50;99.90;;;10.13;100.00;98691.34;5042166;28;20988;-82
2022/11/02 06:33:45;;;;;;;4.13;1.70;;;9.60;99.90;;;10.12;100.00;98690.53;5042060;28;20566;-82
2022/11/02 06:36:14;;;;;;;19.97;2.57;;;9.60;99.90;;;10.11;100.00;98694.13;5041671;28;20487;-83
2022/11/02 06:38:44;;;;;;;9.30;2.17;;;9.50;99.90;;;10.09;100.00;98694.28;5040929;28;20885;-83
2022/11/02 06:41:13;;;;;;;12.87;2.50;;;9.50;99.90;;;10.06;100.00;98697.25;5040351;28;20481;-83
2022/11/02 06:43:43;;;;;;;7.60;2.63;;;9.40;99.90;;;10.09;100.00;98703.94;5040455;28;20972;-83
2022/11/02 06:46:12;;;;;;;11.30;2.50;;;9.50;99.90;;;10.08;100.00;98707.50;5041729;28;20479;-83
2022/11/02 06:48:41;;;;;;;16.17;2.70;;;9.50;99.90;;;10.08;100.00;98712.75;5041113;28;20523;-83
2022/11/02 06:51:09;;;;;;;9.83;2.00;;;9.50;99.90;;;10.10;100.00;98719.41;5040681;28;20481;-82
2022/11/02 06:53:39;;;;;;;9.03;2.83;;;9.50;99.90;;;10.09;100.00;98725.66;5040257;28;20537;-81
2022/11/02 06:56:09;;;;;;;12.53;2.20;;;9.60;99.90;;;10.09;100.00;98723.03;5040954;28;20491;-82
2022/11/02 06:58:37;;;;;;;8.03;2.53;;;9.50;99.90;;;10.13;100.00;98729.53;5039695;28;20551;-83
2022/11/02 07:01:08;;;;;;;6.60;2.23;;;9.60;99.90;;;10.16;100.00;98733.66;5037916;28;20470;-82
2022/11/02 07:03:37;;;;;;;9.00;2.47;;;9.70;99.90;;;10.18;100.00;98731.69;5041148;28;20530;-83
2022/11/02 07:06:07;;;;;;;9.10;2.37;;;9.70;99.90;;;10.21;100.00;98747.03;5041239;28;20521;-82
2022/11/02 07:08:42;;;;;;;8.30;2.57;;;9.70;99.90;;;10.24;100.00;98746.69;5039428;28;20481;-82
2022/11/02 07:11:15;;;;;;;11.63;2.67;;;9.70;99.90;;;10.25;100.00;98748.34;5040712;28;20548;-83
2022/11/02 07:13:43;;;;;;;18.30;2.60;;;9.70;99.90;;;10.26;100.00;98751.78;5038995;28;21793;-83
2022/11/02 07:16:13;;;;;;;12.63;2.30;;;9.70;99.90;;;10.25;100.00;98758.78;5040135;28;21009;-82
2022/11/02 07:18:42;;;;;;;7.73;2.50;;;9.70;99.90;;;10.29;100.00;98765.31;5039798;28;20453;-82
2022/11/02 07:21:11;;;;;;;7.40;2.23;;;9.70;99.90;;;10.28;100.00;98763.69;5038114;28;20533;-83
2022/11/02 07:23:40;;;;;;;7.90;2.43;;;9.70;99.90;;;10.32;100.00;98761.53;5038571;28;20453;-83
2022/11/02 07:26:08;;;;;;;7.70;2.20;;;9.80;99.90;;;10.34;100.00;98768.25;5037288;28;21023;-83
2022/11/02 07:28:37;;;;;;;8.93;2.50;;;9.90;99.90;;;10.35;100.00;98775.09;5037082;28;20537;-83
2022/11/02 07:31:06;;;;;;;6.57;2.23;;;9.80;99.90;;;10.38;100.00;98779.16;5037753;28;20454;-82
2022/11/02 07:33:36;;;;;;;9.47;2.10;;;9.90;99.90;;;10.41;100.00;98776.25;5039558;28;20457;-83
2022/11/02 07:36:05;;;;;;;7.40;1.70;;;9.90;99.90;;;10.44;100.00;98781.13;5038576;28;20504;-83
2022/11/02 07:38:34;;;;;;;9.87;2.03;;;9.90;99.90;;;10.45;100.00;98774.91;5036721;28;20450;-83
2022/11/02 07:41:03;;;;;;;16.87;2.50;;;9.90;99.90;;;10.48;100.00;98788.47;5036863;28;20620;-83
2022/11/02 07:43:31;;;;;;;5.50;2.07;;;9.90;99.90;;;10.51;100.00;98789.94;5037947;28;20457;-83
2022/11/02 07:46:03;;;;;;;15.63;2.40;;;10.00;99.90;;;10.54;100.00;98787.81;5038036;28;20466;-83
2022/11/02 07:48:31;;;;;;;13.93;2.27;;;10.00;99.90;;;10.56;100.00;98788.44;5038085;28;20464;-83
2022/11/02 07:51:01;;;;;;;9.40;2.40;;;10.00;99.90;;;10.58;100.00;98794.34;5037194;28;21382;-82
2022/11/02 07:53:30;;;;;;;9.10;1.87;;;10.00;99.90;;;10.64;100.00;98807.72;5037684;28;21333;-83
2022/11/02 07:56:00;;;;;;;4.10;1.70;;;10.10;99.90;;;10.69;100.00;98808.03;5039308;28;20480;-83
2022/11/02 07:58:29;;;;;;;7.63;2.00;;;10.10;99.90;;;10.74;100.00;98805.72;5037851;28;20883;-83
2022/11/02 08:00:59;;;;;;;9.20;1.73;;;10.20;99.90;;;10.80;100.00;98805.03;5039479;28;20571;-83
2022/11/02 08:03:29;;;;;;;10.97;2.47;;;10.20;99.90;;;10.87;100.00;98817.25;5038057;28;20499;-82
2022/11/02 08:06:03;;;;;;;13.87;3.00;;;10.40;99.90;;;10.93;100.00;98818.41;5039061;28;20517;-82
2022/11/02 08:08:32;;;;;;;8.97;2.40;;;10.40;99.90;;;10.97;100.00;98810.03;5037784;28;20461;-83
2022/11/02 08:11:07;;;;;;;14.00;2.00;;;10.50;99.90;;;11.02;100.00;98823.44;5039850;28;20572;-82
2022/11/02 08:13:37;;;;;;;12.90;2.37;;;10.50;99.90;;;11.06;100.00;98827.34;5039665;28;20437;-82
2022/11/02 08:16:06;;;;;;;10.50;2.47;;;10.50;99.90;;;11.09;100.00;98816.53;5038212;28;20528;-82
2022/11/02 08:18:35;;;;;;;9.03;2.20;;;10.60;99.90;;;11.15;100.00;98815.00;5039806;28;20529;-82
2022/11/02 08:21:06;;;;;;;7.63;1.97;;;10.70;99.90;;;11.20;100.00;98817.13;5038520;28;20533;-82
2022/11/02 08:23:35;;;;;;;6.80;2.17;;;10.80;99.90;;;11.24;100.00;98818.41;5039669;28;20999;-82
2022/11/02 08:26:04;;;;;;;11.20;3.33;;;10.80;99.90;;;11.26;100.00;98816.44;5040143;28;20458;-82
2022/11/02 08:28:38;;;;;;;8.27;2.97;;;10.70;99.90;;;11.29;100.00;98822.13;5040016;28;21145;-82
2022/11/02 08:31:12;;;;;;;7.57;1.93;;;10.80;99.90;;;11.32;100.00;98815.72;5040159;28;21337;-82
2022/11/02 08:33:40;;;;;;;8.40;2.00;;;10.90;99.90;;;11.34;100.00;98821.63;5039048;28;20445;-82
2022/11/02 08:36:11;;;;;;;8.20;1.80;;;10.90;99.90;;;11.36;100.00;98822.25;5038149;28;20508;-82
2022/11/02 08:38:41;;;;;;;14.57;2.23;;;10.90;99.90;;;11.39;100.00;98816.66;5038382;28;20941;-82
2022/11/02 08:41:09;;;;;;;13.03;2.27;;;10.90;99.90;;;11.42;100.00;98822.38;5036997;28;20492;-82
2022/11/02 08:43:39;;;;;;;9.70;2.80;;;11.00;99.90;;;11.45;100.00;98827.28;5038160;28;20978;-82
2022/11/02 08:46:08;;;;;;;11.50;2.00;;;11.00;99.90;;;11.46;100.00;98826.28;5037736;28;20481;-82
2022/11/02 08:48:43;;;;;;;6.20;2.07;;;11.00;99.90;;;11.50;100.00;98838.06;5038447;28;20481;-82
2022/11/02 08:51:14;;;;;;;20.47;2.97;;;11.00;99.90;;;11.50;100.00;98826.75;5037611;28;20548;-82
2022/11/02 08:53:42;;;;;;;8.23;2.30;;;11.00;99.90;;;11.54;100.00;98828.06;5036487;28;20468;-82
2022/11/02 08:56:16;;;;;;;10.77;3.43;;;11.10;99.90;;;11.57;100.00;98831.13;5037718;28;21043;-82
2022/11/02 08:58:45;;;;;;;12.40;3.07;;;11.10;99.90;;;11.60;100.00;98835.22;5037793;28;20458;-82
2022/11/02 09:01:13;;;;;;;7.50;2.80;;;11.10;99.90;;;11.61;100.00;98829.81;5036989;28;20494;-82
2022/11/02 09:03:42;;;;;;;8.23;1.73;;;11.20;99.90;;;11.64;100.00;98826.00;5037919;28;20458;-82
2022/11/02 09:06:11;;;;;;;9.30;1.83;;;11.20;99.90;;;11.66;100.00;98833.72;5038922;28;20506;-82
2022/11/02 09:08:42;;;;;;;12.60;1.90;;;11.20;99.90;;;11.70;100.00;98830.56;5038072;28;20458;-82
2022/11/02 09:11:10;;;;;;;7.03;1.43;;;11.20;99.90;;;11.73;100.00;98834.69;5037906;28;20579;-82
2022/11/02 09:13:39;;;;;;;8.27;2.40;;;11.30;99.90;;;11.75;100.00;98835.31;5036431;28;20884;-82
2022/11/02 09:16:08;;;;;;;18.07;2.90;;;11.30;99.90;;;11.77;100.00;98835.94;5036192;28;20477;-82
2022/11/02 09:18:38;;;;;;;4.10;1.60;;;11.40;99.90;;;11.81;100.00;98845.06;5037752;28;20520;-82
2022/11/02 09:21:08;;;;;;;3.90;1.80;;;11.40;99.90;;;11.80;100.00;98836.41;5035605;28;21077;-82
2022/11/02 09:23:36;;;;;;;15.47;2.40;;;11.40;99.90;;;11.83;100.00;98845.75;5035079;28;20489;-81
2022/11/02 09:26:08;;;;;;;8.67;2.77;;;11.30;99.90;;;11.86;100.00;98840.16;5034925;28;20457;-82
2022/11/02 09:28:37;;;;;;;8.30;2.10;;;11.40;99.90;;;11.87;100.00;98857.50;5033745;28;20547;-82
2022/11/02 09:31:10;;;;;;;10.53;1.80;;;11.30;99.90;;;11.92;100.00;98834.19;5033502;28;20450;-83
2022/11/02 09:33:39;;;;;;;8.33;2.40;;;11.40;99.90;;;11.92;100.00;98850.75;5033186;28;20532;-82
2022/11/02 09:36:10;;;;;;;7.77;1.80;;;11.40;99.90;;;11.97;100.00;98858.09;5034523;28;20454;-82
2022/11/02 09:38:38;;;;;;;7.00;3.10;;;11.50;99.90;;;11.97;100.00;98850.22;5033581;28;20500;-82
2022/11/02 09:41:18;;;;;;;14.13;1.90;;;11.40;99.90;;;12.02;100.00;98855.72;5034165;28;20588;-82
2022/11/02 09:44:03;;;;;;;7.13;1.70;;;11.50;99.90;;;12.05;100.00;98858.81;5034974;28;21097;-82
2022/11/02 09:46:37;;;;;;;11.37;2.00;;;11.60;99.90;;;12.09;100.00;98848.78;5039980;28;20506;-82
2022/11/02 09:49:16;;;;;;;14.13;2.33;;;11.60;99.90;;;12.13;100.00;98844.00;5037623;28;20969;-82
2022/11/02 09:51:48;;;;;;;10.60;2.53;;;11.70;99.90;;;12.11;100.00;98839.75;5036707;28;20449;-82
2022/11/02 09:54:23;;;;;;;10.80;2.10;;;11.70;99.90;;;12.15;100.00;98844.66;5036260;28;20957;-82
2022/11/02 09:56:59;;;;;;;11.37;2.03;;;11.60;99.90;;;12.16;100.00;98847.09;5037349;28;20480;-82
2022/11/02 09:59:28;;;;;;;9.83;1.87;;;11.70;99.90;;;12.15;100.00;98855.94;5036274;28;20503;-82
2022/11/02 10:02:10;;;;;;;11.03;2.57;;;11.70;99.90;;;12.16;100.00;98867.25;5037419;28;20497;-82
2022/11/02 10:04:58;;;;;;;8.83;2.10;;;11.60;99.90;;;12.14;100.00;98867.44;5038526;28;20457;-82
2022/11/02 10:08:06;;;;;;;8.60;1.90;;;11.60;99.90;;;12.14;100.00;98864.81;5039098;28;20490;-82
2022/11/02 10:10:43;;;;;;;12.10;2.97;;;11.70;99.90;;;12.11;100.00;98860.72;5037412;28;20473;-81
2022/11/02 10:13:34;;;;;;;11.93;1.90;;;11.60;99.90;;;12.11;100.00;98865.19;5037544;28;20552;-82
2022/11/02 10:16:11;;;;;;;9.77;2.50;;;11.60;99.90;;;12.15;100.00;98861.19;5036676;28;20461;-81
2022/11/02 10:18:42;;;;;;;7.40;2.20;;;11.60;99.90;;;12.17;100.00;98869.72;5038740;28;20477;-81
2022/11/02 10:21:18;;;;;;;16.50;2.50;;;11.60;99.90;;;12.16;100.00;98867.25;5035924;28;20530;-81
2022/11/02 10:23:51;;;;;;;4.83;1.93;;;11.70;99.90;;;12.18;100.00;98871.34;5036850;28;20842;-81
2022/11/02 10:26:29;;;;;;;10.53;2.20;;;11.70;99.90;;;12.20;100.00;98882.47;5036052;28;20442;-81
2022/11/02 10:29:12;;;;;;;11.10;2.50;;;11.70;99.90;;;12.26;100.00;98884.38;5036897;28;20802;-82
2022/11/02 10:31:43;;;;;;;12.63;1.80;;;11.80;99.90;;;12.32;100.00;98888.91;5037419;28;20466;-81
2022/11/02 10:34:25;;;;;;;16.13;2.90;;;11.70;99.90;;;12.35;100.00;98888.56;5038808;28;20462;-82
2022/11/02 10:37:15;;;;;;;9.70;2.00;;;11.80;99.90;;;12.38;100.00;98877.72;5040848;28;20466;-82
2022/11/02 10:40:03;;;;;;;6.20;1.97;;;11.80;99.90;;;12.44;100.00;98877.00;5038555;28;20789;-81
2022/11/02 10:42:52;;;;;;;12.17;2.17;;;12.00;99.90;;;12.52;100.00;98879.56;5040483;28;20485;-82
2022/11/02 10:46:02;;;;;;;5.33;1.73;;;12.00;99.90;;;12.61;100.00;98862.75;5040889;28;20492;-82
2022/11/02 10:48:45;;;;;;;9.57;1.83;;;12.20;99.90;;;12.63;100.00;98850.25;5040965;28;20442;-82
2022/11/02 10:51:16;;;;;;;6.30;1.53;;;12.10;99.90;;;12.72;100.00;98847.53;5039894;28;20457;-81
2022/11/02 10:53:48;;;;;;;8.73;2.03;;;12.20;99.90;;;12.76;100.00;98848.81;5039335;28;20490;-81
2022/11/02 10:56:20;;;;;;;13.67;2.40;;;12.20;99.90;;;12.79;100.00;98861.56;5040268;28;20467;-81